Time;durP1;ratioP1;P1;durP2;ratioP2;P2;SDS_P1;SDS_P2;PMS_P1;PMS_P2;Temp;Humidity;BMP_temperature;BMP_pressure;BME280_temperature;BME280_humidity;BME280_pressure;Samples;Min_cycle;Max_cycle;Signal;HPM_P1;HPM_P2
2024/01/16 00:01:25;;;;;;;31.27;15.65;;;;;;;-144.05;78.35;57086.72;5090352;28;20036;-79
2024/01/16 00:03:51;;;;;;;29.20;14.95;;;;;;;-144.05;78.80;57078.22;5091210;28;20039;-77
2024/01/16 00:06:17;;;;;;;32.80;16.42;;;;;;;-144.05;78.41;57116.47;5091585;28;20104;-79
2024/01/16 00:08:44;;;;;;;27.70;14.35;;;;;;;-144.05;78.42;57118.59;5089932;28;20024;-77
2024/01/16 00:11:11;;;;;;;27.73;14.02;;;;;;;-144.05;79.10;57095.22;5091993;28;20044;-80
2024/01/16 00:13:37;;;;;;;31.13;14.68;;;;;;;-144.05;77.65;57073.97;5091532;28;20066;-80
2024/01/16 00:16:04;;;;;;;25.80;14.30;;;;;;;-144.05;78.10;57110.09;5091435;28;20053;-80
2024/01/16 00:18:30;;;;;;;29.20;13.65;;;;;;;-144.05;77.39;57065.47;5091527;28;20040;-79
2024/01/16 00:20:57;;;;;;;26.67;14.65;;;;;;;-144.05;77.90;57124.97;5091716;28;20089;-77
2024/01/16 00:23:23;;;;;;;22.90;14.00;;;;;;;-144.05;77.50;57082.47;5095710;28;20023;-79
2024/01/16 00:25:49;;;;;;;25.92;12.60;;;;;;;-144.05;77.56;57093.09;5092092;28;20106;-78
2024/01/16 00:28:15;;;;;;;31.90;13.45;;;;;;;-144.05;77.48;57073.97;5089881;28;20412;-80
2024/01/16 00:30:42;;;;;;;28.63;12.43;;;-1.60;99.90;;;-144.05;77.76;57133.44;5091496;28;20024;-79
2024/01/16 00:33:10;;;;;;;20.70;12.13;;;;;;;-144.05;78.00;57116.47;5091607;28;20031;-81
2024/01/16 00:35:36;;;;;;;25.58;12.65;;;;;;;-144.05;78.15;57086.72;5098127;28;20020;-79
2024/01/16 00:38:02;;;;;;;25.60;13.15;;;;;;;-144.05;78.55;57105.84;5091572;28;20028;-78
2024/01/16 00:40:28;;;;;;;30.42;14.13;;;;;;;-144.05;78.60;57076.09;5091837;28;20024;-78
2024/01/16 00:42:54;;;;;;;28.42;12.75;;;;;;;-144.05;77.95;57069.72;5095437;28;20032;-78
2024/01/16 00:45:21;;;;;;;25.38;11.93;;;;;;;-144.05;77.90;57122.84;5092747;28;20035;-78
2024/01/16 00:47:47;;;;;;;29.25;13.00;;;;;;;-144.05;78.32;57099.47;5099187;28;20028;-79
2024/01/16 00:50:14;;;;;;;24.05;14.30;;;;;;;-144.05;77.93;57073.97;5110882;28;20035;-79
2024/01/16 00:52:40;;;;;;;30.85;14.48;;;;;;;-144.05;78.36;57090.97;5109595;28;20079;-80
2024/01/16 00:55:06;;;;;;;24.92;13.25;;;;;;;-144.05;79.11;57105.84;5117294;28;20038;-77
2024/01/16 00:57:33;;;;;;;28.38;14.38;;;;;;;-144.05;78.62;57129.22;5110189;28;20023;-79
2024/01/16 00:59:59;;;;;;;31.40;13.32;;;;;;;-144.05;77.47;57076.09;5103814;28;20107;-78
2024/01/16 01:02:25;;;;;;;29.13;12.93;;;;;;;-144.05;76.98;57065.47;5111513;28;20059;-78
2024/01/16 01:04:51;;;;;;;23.20;12.70;;;;;;;-144.05;76.29;57052.75;5106267;28;20036;-80
2024/01/16 01:07:18;;;;;;;23.92;13.10;;;;;;;-144.05;76.99;57071.84;5105950;28;20107;-78
2024/01/16 01:09:44;;;;;;;28.20;13.10;;;;;;;-144.05;76.32;57073.97;5090589;28;20020;-79
2024/01/16 01:12:10;;;;;;;24.75;12.75;;;;;;;-144.05;77.97;57069.72;5097791;28;20024;-79
2024/01/16 01:14:36;;;;;;;24.20;13.07;;;;;;;-144.05;78.84;57069.72;5090355;28;20066;-78
2024/01/16 01:17:03;;;;;;;32.92;14.90;;;;;;;-144.05;78.77;57067.59;5090612;28;20024;-81
2024/01/16 01:19:29;;;;;;;22.73;11.77;;;;;;;-144.05;79.09;57088.84;5091820;28;20404;-79
2024/01/16 01:21:55;;;;;;;28.63;13.75;;;;;;;-144.05;79.13;57086.72;5111546;28;20061;-80
2024/01/16 01:24:22;;;;;;;25.50;12.27;;;;;;;-144.05;79.95;57056.97;5096727;28;20070;-80
2024/01/16 01:26:48;;;;;;;22.90;12.48;;;;;;;-144.05;80.45;57090.97;5106209;28;20024;-77
2024/01/16 01:29:14;;;;;;;27.90;11.75;;;;;;;-144.05;81.06;57052.75;5091046;28;20028;-79
2024/01/16 01:31:40;;;;;;;23.52;12.20;;;;;;;-144.05;80.20;57067.59;5090635;28;20473;-78
2024/01/16 01:34:07;;;;;;;28.30;12.48;;;;;;;-144.05;79.91;57103.72;5093150;28;20036;-79
2024/01/16 01:36:33;;;;;;;27.38;11.75;;;;;;;-144.05;80.16;57124.97;5105221;28;20028;-78
2024/01/16 01:38:59;;;;;;;25.77;11.48;;;;;;;-144.05;80.08;57071.84;5098736;28;20072;-76
2024/01/16 01:41:39;;;;;;;31.88;12.35;;;-1.80;99.90;;;-144.05;80.60;57048.50;5110237;28;20055;-82
2024/01/16 01:44:06;;;;;;;23.75;11.45;;;-1.50;99.90;;;-144.05;79.80;57103.72;5117820;28;20044;-81
2024/01/16 01:46:35;;;;;;;24.58;11.95;;;;;;;-144.05;79.03;57084.59;5092278;28;20085;-80
2024/01/16 01:49:02;;;;;;;21.02;11.77;;;;;;;-144.05;78.79;57084.59;5088737;28;20118;-80
2024/01/16 01:51:29;;;;;;;27.45;11.77;;;;;;;-144.05;78.74;57093.09;5090490;28;20050;-79
2024/01/16 01:53:57;;;;;;;27.65;11.85;;;;;;;-144.05;79.04;57097.34;5090627;28;20027;-80
2024/01/16 01:56:23;;;;;;;25.30;11.90;;;;;;;-144.05;79.58;57090.97;5092437;28;20036;-80
2024/01/16 01:58:57;;;;;;;23.38;11.70;;;1.80;99.90;;;-144.05;79.94;57090.97;5093559;28;20748;-80
2024/01/16 02:01:25;;;;;;;23.05;11.23;;;;;;;-144.05;79.25;57073.97;5094031;28;20032;-79
2024/01/16 02:03:55;;;;;;;28.75;13.05;;;;;;;-144.05;78.87;57099.47;5093500;28;20028;-78
2024/01/16 02:06:21;;;;;;;25.90;11.50;;;;;;;-144.05;78.79;57065.47;5095020;28;20031;-80
2024/01/16 02:08:48;;;;;;;22.02;11.68;;;;;;;-144.05;79.34;57084.59;5103477;28;20057;-80
2024/01/16 02:11:14;;;;;;;24.70;10.75;;;;;;;-144.05;78.62;57090.97;5093451;28;20028;-81
2024/01/16 02:13:41;;;;;;;23.45;11.88;;;;;;;-144.05;79.08;57080.34;5096287;28;20446;-79
2024/01/16 02:16:19;;;;;;;21.73;10.18;;;;;;;-144.05;78.13;57090.97;5092628;28;20056;-80
2024/01/16 02:18:46;;;;;;;22.92;10.98;;;;;;;-144.05;78.80;57067.59;5097209;28;20084;-80
2024/01/16 02:21:22;;;;;;;24.48;11.00;;;1.70;99.90;;;-144.05;78.75;57120.72;5109781;28;20032;-80
2024/01/16 02:23:49;;;;;;;25.63;11.27;;;;;;;-144.05;79.56;57090.97;5093825;28;20032;-79
2024/01/16 02:26:17;;;;;;;20.90;10.55;;;;;;;-144.05;79.37;57078.22;5092965;28;20024;-80
2024/01/16 02:28:43;;;;;;;20.83;10.40;;;;;;;-144.05;78.93;57114.34;5102831;28;20070;-80
2024/01/16 02:31:09;;;;;;;23.38;10.43;;;;;;;-144.05;78.76;57088.84;5092219;28;20090;-79
2024/01/16 02:33:36;;;;;;;22.75;11.20;;;;;;;-144.05;78.15;57099.47;5093329;28;20089;-78
2024/01/16 02:36:02;;;;;;;19.00;10.40;;;;;;;-144.05;77.85;57097.34;5104977;28;20110;-79
2024/01/16 02:38:28;;;;;;;22.13;10.13;;;;;;;-144.05;77.81;57078.22;5095343;28;20048;-80
2024/01/16 02:40:54;;;;;;;17.35;10.23;;;;;;;-144.05;77.18;57073.97;5093319;28;20027;-78
2024/01/16 02:43:21;;;;;;;20.92;9.88;;;;;;;-144.05;77.68;57112.22;5093124;28;20071;-80
2024/01/16 02:45:47;;;;;;;21.77;10.50;;;;;;;-144.05;77.83;57103.72;5091761;28;20399;-78
2024/01/16 02:48:14;;;;;;;19.55;10.00;;;;;;;-144.05;78.51;57088.84;5100097;28;20056;-79
2024/01/16 02:50:40;;;;;;;21.20;9.40;;;;;;;-144.05;78.34;57071.84;5093012;28;20099;-81
2024/01/16 02:53:06;;;;;;;26.52;11.10;;;;;;;-144.05;79.36;57078.22;5091457;28;20342;-81
2024/01/16 02:55:32;;;;;;;21.27;10.70;;;;;;;-144.05;78.21;57059.09;5091472;28;20111;-79
2024/01/16 02:57:58;;;;;;;24.80;10.90;;;;;;;-144.05;78.37;57095.22;5092291;28;20024;-81
2024/01/16 03:00:25;;;;;;;23.70;11.48;;;;;;;-144.05;76.79;57095.22;5094181;28;20034;-80
2024/01/16 03:02:51;;;;;;;22.55;11.02;;;;;;;-144.05;77.55;57088.84;5090754;28;20046;-79
2024/01/16 03:05:17;;;;;;;24.83;10.75;;;;;;;-144.05;77.12;57082.47;5091927;28;20690;-80
2024/01/16 03:07:43;;;;;;;21.58;10.90;;;;;;;-144.05;77.11;57099.47;5092408;28;20118;-79
2024/01/16 03:10:10;;;;;;;23.13;10.93;;;;;;;-144.05;76.80;57118.59;5092872;28;20037;-77
2024/01/16 03:12:36;;;;;;;18.30;10.38;;;;;;;-144.05;78.20;57122.84;5093040;28;20027;-81
2024/01/16 03:15:03;;;;;;;23.33;10.05;;;;;;;-144.05;78.14;57099.47;5095931;28;20504;-81
2024/01/16 03:17:29;;;;;;;19.98;10.48;;;;;;;-144.05;77.81;57116.47;5090902;28;20016;-81
2024/01/16 03:19:55;;;;;;;24.58;11.10;;;;;;;-144.05;78.38;57059.09;5091215;28;20057;-80
2024/01/16 03:22:22;;;;;;;22.13;11.48;;;;;;;-144.05;78.06;57082.47;5092366;28;20032;-81
2024/01/16 03:24:49;;;;;;;19.40;9.88;;;;;;;-144.05;78.28;57056.97;5096842;28;20028;-80
2024/01/16 03:27:15;;;;;;;22.55;10.88;;;;;;;-144.05;78.92;57107.97;5096321;28;20024;-78
2024/01/16 03:29:41;;;;;;;21.50;10.55;;;;;;;-144.05;78.77;57082.47;5092213;28;20497;-82
2024/01/16 03:32:08;;;;;;;21.88;10.55;;;;;;;-144.05;78.41;57114.34;5090842;28;20042;-80
2024/01/16 03:34:34;;;;;;;20.05;10.82;;;;;;;-144.05;78.84;57103.72;5090550;28;20097;-80
2024/01/16 03:37:00;;;;;;;19.02;9.27;;;;;;;-144.05;78.44;57116.47;5092253;28;20028;-80
2024/01/16 03:39:26;;;;;;;18.58;9.57;;;;;;;-144.05;78.67;57114.34;5091996;28;20412;-81
2024/01/16 03:41:53;;;;;;;17.20;9.50;;;;;;;-144.05;78.24;57088.84;5092350;28;20063;-80
2024/01/16 03:44:19;;;;;;;20.98;9.55;;;;;;;-144.05;78.70;57073.97;5094039;28;20119;-80
2024/01/16 03:46:45;;;;;;;15.82;8.88;;;;;;;-144.05;78.63;57093.09;5100424;28;20028;-78
2024/01/16 03:49:11;;;;;;;21.65;10.35;;;;;;;-144.05;78.80;57076.09;5091229;28;20059;-80
2024/01/16 03:51:37;;;;;;;18.33;9.88;;;;;;;-144.05;78.71;57099.47;5091009;28;20044;-80
2024/01/16 03:54:04;;;;;;;18.58;9.30;;;;;;;-144.05;78.45;57103.72;5112012;28;20023;-82
2024/01/16 03:56:30;;;;;;;21.88;9.85;;;;;;;-144.05;78.71;57076.09;5096490;28;20024;-79
2024/01/16 03:58:56;;;;;;;20.48;9.10;;;;;;;-144.05;78.20;57103.72;5090246;28;20024;-81
2024/01/16 04:01:33;;;;;;;16.70;9.48;;;;;;;-144.05;78.03;57116.47;5090513;28;20055;-81
2024/01/16 04:03:59;;;;;;;19.33;10.70;;;;;;;-144.05;78.10;57061.22;5094135;28;20035;-79
2024/01/16 04:06:27;;;;;;;15.82;9.00;;;;;;;-144.05;77.34;57086.72;5091439;28;20078;-80
2024/01/16 04:08:53;;;;;;;21.90;10.38;;;;;;;-144.05;77.37;57129.22;5089975;28;20562;-80
2024/01/16 04:11:19;;;;;;;17.83;10.82;;;;;;;-144.05;77.95;57097.34;5091656;28;20062;-81
2024/01/16 04:13:45;;;;;;;21.20;11.20;;;;;;;-144.05;78.53;57086.72;5091136;28;20035;-79
2024/01/16 04:16:13;;;;;;;21.13;11.45;;;1.60;99.90;;;-144.05;78.54;57076.09;5091152;28;20040;-78
2024/01/16 04:18:43;;;;;;;20.48;12.38;;;-1.80;99.90;;;-144.05;79.23;57101.59;5091372;28;20122;-80
2024/01/16 04:21:09;;;;;;;27.95;13.82;;;;;;;-144.05;78.45;57120.72;5091685;28;20052;-79
2024/01/16 04:23:36;;;;;;;21.77;12.90;;;;;;;-144.05;78.58;57067.59;5091187;28;20032;-78
2024/01/16 04:26:03;;;;;;;25.58;14.07;;;;;;;-144.05;77.72;57110.09;5100760;28;20028;-81
2024/01/16 04:28:29;;;;;;;27.00;14.52;;;;;;;-144.05;78.63;57082.47;5096142;28;20034;-80
2024/01/16 04:30:55;;;;;;;33.53;14.27;;;;;;;-144.05;78.63;57114.34;5104690;28;20039;-80
2024/01/16 04:33:22;;;;;;;25.25;14.40;;;;;;;-144.05;78.63;57124.97;5115634;28;20024;-77
2024/01/16 04:35:48;;;;;;;29.05;14.85;;;;;;;-144.05;77.90;57088.84;5099910;28;20106;-80
2024/01/16 04:38:14;;;;;;;26.70;14.38;;;;;;;-144.05;78.23;57061.22;5091084;28;20488;-81
2024/01/16 04:40:40;;;;;;;28.42;15.32;;;;;;;-144.05;77.61;57116.47;5090045;28;20055;-80
2024/01/16 04:43:06;;;;;;;31.67;15.73;;;;;;;-144.05;78.61;57073.97;5091077;28;20028;-78
2024/01/16 04:45:33;;;;;;;34.67;16.17;;;;;;;-144.05;78.77;57101.59;5090522;28;20069;-80
2024/01/16 04:47:59;;;;;;;31.88;16.05;;;;;;;-144.05;78.06;57099.47;5091490;28;20028;-81
2024/01/16 04:50:31;;;;;;;28.77;14.93;;;;;;;-144.05;77.94;57099.47;5094057;28;20058;-78
2024/01/16 04:52:59;;;;;;;29.52;15.77;;;;;;;-144.05;78.46;57090.97;5096500;28;20032;-76
2024/01/16 04:55:29;;;;;;;33.83;15.80;;;;;;;-144.05;78.49;57097.34;5095080;28;20036;-80
2024/01/16 04:57:56;;;;;;;32.58;16.23;;;;;;;-144.05;78.50;57110.09;5095323;28;20024;-80
2024/01/16 05:00:23;;;;;;;28.75;15.40;;;;;;;-144.05;78.13;57095.22;5090117;28;20072;-80
2024/01/16 05:02:51;;;;;;;26.50;15.05;;;;;;;-144.05;78.12;57086.72;5089821;28;20043;-81
2024/01/16 05:05:17;;;;;;;30.05;14.48;;;;;;;-144.05;78.15;57097.34;5091309;28;20044;-80
2024/01/16 05:07:44;;;;;;;27.30;14.40;;;;;;;-144.05;78.25;57120.72;5091281;28;20458;-79
2024/01/16 05:10:15;;;;;;;30.95;13.85;;;;;;;-144.05;77.98;57093.09;5091363;28;20036;-80
2024/01/16 05:12:42;;;;;;;27.95;14.30;;;;;;;-144.05;77.62;57071.84;5091299;28;20481;-80
2024/01/16 05:15:11;;;;;;;25.48;13.57;;;;;;;-144.05;78.23;57101.59;5090674;28;20214;-80
2024/01/16 05:17:37;;;;;;;28.27;14.25;;;;;;;-144.05;78.40;57071.84;5089244;28;20016;-80
2024/01/16 05:20:05;;;;;;;25.83;14.07;;;;;;;-144.05;77.87;57118.59;5089475;28;20082;-80
2024/01/16 05:22:31;;;;;;;27.42;13.77;;;;;;;-144.05;78.18;57086.72;5092619;28;20493;-79
2024/01/16 05:25:00;;;;;;;25.42;14.00;;;;;;;-144.05;78.33;57088.84;5091194;28;20020;-81
2024/01/16 05:27:26;;;;;;;27.63;14.00;;;;;;;-144.05;77.66;57114.34;5102223;28;20025;-79
2024/01/16 05:29:52;;;;;;;25.42;13.27;;;;;;;-144.05;77.95;57090.97;5106161;28;20111;-81
2024/01/16 05:32:19;;;;;;;32.63;13.93;;;;;;;-144.05;78.01;57078.22;5112243;28;20032;-78
2024/01/16 05:34:45;;;;;;;25.15;14.93;;;;;;;-144.05;78.08;57044.25;5098426;28;20107;-79
2024/01/16 05:37:12;;;;;;;27.35;14.45;;;;;;;-144.05;77.52;57065.47;5098235;28;20016;-79
2024/01/16 05:39:38;;;;;;;28.38;14.70;;;;;;;-144.05;77.56;57080.34;5107565;28;20024;-79
2024/01/16 05:42:05;;;;;;;42.42;17.63;;;;;;;-144.05;77.76;57082.47;5110907;28;20028;-80
2024/01/16 05:44:31;;;;;;;26.80;13.88;;;;;;;-144.05;77.41;57103.72;5097923;28;20027;-77
2024/01/16 05:46:57;;;;;;;26.30;13.75;;;;;;;-144.05;76.69;57076.09;5096237;28;20024;-77
2024/01/16 05:49:23;;;;;;;29.30;14.68;;;;;;;-144.05;77.26;57099.47;5096650;28;20027;-81
2024/01/16 05:51:49;;;;;;;26.48;15.20;;;;;;;-144.05;76.41;57105.84;5099978;28;20032;-79
2024/01/16 05:54:16;;;;;;;25.17;13.07;;;;;;;-144.05;77.56;57095.22;5096231;28;20520;-78
2024/01/16 05:56:42;;;;;;;29.75;14.52;;;;;;;-144.05;77.07;57118.59;5110606;28;20020;-79
2024/01/16 05:59:08;;;;;;;31.45;14.63;;;;;;;-144.05;76.67;57067.59;5102501;28;20105;-81
2024/01/16 06:01:34;;;;;;;29.63;14.20;;;;;;;-144.05;76.30;57071.84;5098576;28;20136;-81
2024/01/16 06:04:00;;;;;;;33.58;14.55;;;;;;;-144.05;76.71;57099.47;5097122;28;20055;-80
2024/01/16 06:06:27;;;;;;;23.00;13.13;;;;;;;-144.05;76.69;57103.72;5097277;28;20496;-80
2024/01/16 06:08:53;;;;;;;29.13;15.07;;;;;;;-144.05;76.44;57088.84;5093858;28;20055;-81
2024/01/16 06:11:29;;;;;;;22.92;11.68;;;;;;;-144.05;77.78;57103.72;5093856;28;20081;-80
2024/01/16 06:13:56;;;;;;;20.02;10.93;;;;;;;-144.05;77.07;57082.47;5097851;28;20476;-80
2024/01/16 06:16:22;;;;;;;20.45;10.70;;;;;;;-144.05;77.14;57112.22;5104105;28;20031;-80
2024/01/16 06:18:48;;;;;;;21.15;10.23;;;;;;;-144.05;77.61;57122.84;5093414;28;20338;-79
2024/01/16 06:21:16;;;;;;;16.13;9.43;;;;;;;-144.05;77.45;57103.72;5099177;28;20043;-78
2024/01/16 06:23:42;;;;;;;19.52;9.48;;;;;;;-144.05;77.96;57090.97;5103629;28;20036;-80
2024/01/16 06:26:09;;;;;;;16.80;9.77;;;;;;;-144.05;77.38;57067.59;5111296;28;20028;-80
2024/01/16 06:28:36;;;;;;;15.60;9.48;;;;;;;-144.05;76.81;57097.34;5100683;28;20028;-80
2024/01/16 06:31:02;;;;;;;21.63;9.52;;;;;;;-144.05;76.81;57095.22;5102100;28;20497;-79
2024/01/16 06:33:28;;;;;;;59.92;17.63;;;;;;;-144.05;77.43;57095.22;5098612;28;20110;-78
2024/01/16 06:35:57;;;;;;;18.90;8.90;;;;;;;-144.05;77.14;57061.22;5097517;28;20035;-79
2024/01/16 06:38:24;;;;;;;16.75;7.95;;;;;;;-144.05;76.86;57056.97;5098559;28;20368;-79
2024/01/16 06:40:50;;;;;;;16.95;7.47;;;;;;;-144.05;76.73;57103.72;5100244;28;20034;-80
2024/01/16 06:43:16;;;;;;;17.63;7.53;;;;;;;-144.05;77.53;57131.31;5095542;28;20072;-80
2024/01/16 06:45:44;;;;;;;13.60;6.78;;;;;;;-144.05;77.83;57099.47;5102561;28;20118;-79
2024/01/16 06:48:10;;;;;;;14.60;7.50;;;;;;;-144.05;76.06;57082.47;5093719;28;20039;-79
2024/01/16 06:50:36;;;;;;;11.90;7.07;;;;;;;-144.05;76.76;57069.72;5094867;28;20448;-77
2024/01/16 06:53:03;;;;;;;18.35;9.77;;;;;;;-144.05;75.72;57120.72;5098172;28;20405;-80
2024/01/16 06:55:29;;;;;;;22.63;9.25;;;;;;;-144.05;75.45;57082.47;5098591;28;20377;-79
2024/01/16 06:57:55;;;;;;;23.35;10.95;;;;;;;-144.05;75.65;57118.59;5102547;28;20074;-80
2024/01/16 07:00:25;;;;;;;14.40;8.25;;;;;;;-144.05;74.93;57061.22;5100522;28;20028;-79
2024/01/16 07:02:54;;;;;;;15.35;7.82;;;;;;;-144.05;74.94;57080.34;5100617;28;20057;-80
2024/01/16 07:05:21;;;;;;;20.33;9.70;;;;;;;-144.05;76.06;57061.22;5098051;28;20448;-79
2024/01/16 07:07:47;;;;;;;22.48;10.45;;;;;;;-144.05;75.50;57078.22;5094197;28;20050;-79
2024/01/16 07:10:18;;;;;;;15.32;10.70;;;;;;;-144.05;75.87;57044.25;5105399;28;20055;-79
2024/01/16 07:12:45;;;;;;;25.38;12.85;;;;;;;-144.05;76.24;57061.22;5094782;28;20409;-81
2024/01/16 07:15:11;;;;;;;22.92;12.93;;;;;;;-144.05;76.93;57097.34;5097313;28;20554;-78
2024/01/16 07:17:38;;;;;;;28.90;14.82;;;;;;;-144.05;76.73;57095.22;5097773;28;20020;-79
2024/01/16 07:20:04;;;;;;;35.03;15.45;;;;;;;-144.05;77.18;57059.09;5103425;28;20035;-80
2024/01/16 07:22:31;;;;;;;28.65;16.15;;;;;;;-144.05;77.41;57101.59;5115588;28;20030;-80
2024/01/16 07:24:57;;;;;;;29.13;15.85;;;;;;;-144.05;77.23;57095.22;5114785;28;20062;-80
2024/01/16 07:27:23;;;;;;;31.95;15.57;;;;;;;-144.05;77.15;57112.22;5108702;28;20048;-80
2024/01/16 07:29:49;;;;;;;30.27;16.15;;;;;;;-144.05;76.85;57103.72;5115413;28;20028;-80
2024/01/16 07:32:16;;;;;;;28.40;15.70;;;;;;;-144.05;76.81;57093.09;5101491;28;20079;-82
2024/01/16 07:34:42;;;;;;;33.35;16.55;;;;;;;-144.05;76.56;57099.47;5106331;28;20099;-81
2024/01/16 07:37:09;;;;;;;37.08;16.55;;;;;;;-144.05;76.41;57082.47;5113235;28;20032;-82
2024/01/16 07:39:35;;;;;;;32.60;16.63;;;;;;;-144.05;76.36;57097.34;5110213;28;20107;-79
2024/01/16 07:42:01;;;;;;;28.30;14.80;;;;;;;-144.05;76.21;57127.09;5115707;28;20091;-79
2024/01/16 07:44:27;;;;;;;32.97;16.20;;;;;;;-144.05;76.12;57097.34;5113444;27;20023;-78
2024/01/16 07:46:54;;;;;;;28.23;15.13;;;;;;;-144.05;76.33;57103.72;5101867;28;20361;-78
2024/01/16 07:49:20;;;;;;;25.98;14.60;;;;;;;-144.05;76.50;57110.09;5101792;28;20128;-78
2024/01/16 07:51:46;;;;;;;20.88;14.02;;;;;;;-144.05;76.51;57112.22;5104115;28;20026;-80
2024/01/16 07:54:13;;;;;;;35.80;14.63;;;;;;;-144.05;75.83;57097.34;5093328;28;20039;-81
2024/01/16 07:56:40;;;;;;;26.95;13.07;;;;;;;-144.05;76.75;57103.72;5093954;28;20020;-80
2024/01/16 07:59:06;;;;;;;28.02;12.52;;;;;;;-144.05;75.92;57105.84;5095877;28;20043;-78
2024/01/16 08:01:33;;;;;;;23.17;12.27;;;;;;;-144.05;75.36;57103.72;5092360;28;20051;-79
2024/01/16 08:03:59;;;;;;;29.88;12.48;;;;;;;-144.05;75.30;57120.72;5092735;28;20053;-80
2024/01/16 08:06:26;;;;;;;22.50;11.10;;;;;;;-144.05;75.41;57088.84;5093441;28;20091;-79
2024/01/16 08:08:52;;;;;;;24.23;11.90;;;;;;;-144.05;75.36;57131.31;5091624;28;20020;-78
2024/01/16 08:11:19;;;;;;;22.10;10.70;;;2.00;99.90;;;-144.05;75.80;57114.34;5093101;28;20031;-79
2024/01/16 08:13:45;;;;;;;23.00;10.23;;;;;;;-144.05;75.25;57067.59;5092414;28;20028;-77
2024/01/16 08:16:11;;;;;;;22.38;10.15;;;;;;;-144.05;75.15;57082.47;5093620;28;20133;-79
2024/01/16 08:18:37;;;;;;;26.95;10.05;;;;;;;-144.05;75.17;57078.22;5098727;28;20134;-80
2024/01/16 08:21:04;;;;;;;16.50;8.80;;;;;;;-144.05;75.05;57107.97;5108382;28;20023;-78
2024/01/16 08:23:30;;;;;;;18.63;8.88;;;;;;;-144.05;74.56;57063.34;5097173;28;20108;-79
2024/01/16 08:25:56;;;;;;;20.92;8.60;;;;;;;-144.05;74.64;57114.34;5094285;28;20035;-80
2024/01/16 08:28:24;;;;;;;16.70;7.63;;;;;;;-144.05;74.18;57124.97;5094075;28;20043;-80
2024/01/16 08:30:50;;;;;;;18.55;8.73;;;;;;;-144.05;73.63;57110.09;5092607;28;20032;-80
2024/01/16 08:33:17;;;;;;;21.95;7.28;;;;;;;-144.05;73.40;57114.34;5093534;28;20028;-81
2024/01/16 08:35:43;;;;;;;23.13;8.15;;;;;;;-144.05;73.41;57103.72;5098872;28;20058;-79
2024/01/16 08:38:09;;;;;;;14.07;6.30;;;;;;;-144.05;72.93;57103.72;5104864;28;20070;-80
2024/01/16 08:40:36;;;;;;;16.80;6.90;;;;;;;-144.05;72.43;57110.09;5094025;28;20027;-80
2024/01/16 08:43:03;;;;;;;16.15;5.80;;;;;;;-144.05;72.34;57056.97;5094071;28;20162;-77
2024/01/16 08:45:29;;;;;;;13.07;5.40;;;;;;;-144.05;72.26;57080.34;5097829;28;20047;-81
2024/01/16 08:47:56;;;;;;;18.15;5.90;;;;;;;-144.05;72.29;57095.22;5096530;28;20084;-78
2024/01/16 08:50:22;;;;;;;11.50;4.75;;;;;;;-144.05;71.78;57090.97;5096409;28;20028;-81
2024/01/16 08:52:49;;;;;;;15.18;4.70;;;;;;;-144.05;71.58;57099.47;5101820;28;20439;-77
2024/01/16 08:55:15;;;;;;;11.55;4.75;;;;;;;-144.05;71.18;57084.59;5099297;28;20081;-78
2024/01/16 08:57:41;;;;;;;9.80;4.70;;;;;;;-144.05;71.29;57088.84;5111445;28;20027;-79
2024/01/16 09:00:08;;;;;;;12.38;5.60;;;;;;;-144.05;70.83;57107.97;5102906;28;20058;-78
2024/01/16 09:02:35;;;;;;;12.93;3.92;;;;;;;-144.05;70.31;57116.47;5097066;28;20024;-81
2024/01/16 09:05:02;;;;;;;10.93;4.35;;;;;;;-144.05;70.02;57093.09;5097507;28;20052;-78
2024/01/16 09:07:28;;;;;;;10.30;3.75;;;;;;;-144.05;69.71;57078.22;5099141;28;20028;-80
2024/01/16 09:09:54;;;;;;;12.80;3.60;;;;;;;-144.05;69.70;57114.34;5098943;28;20035;-80
2024/01/16 09:12:21;;;;;;;10.93;3.47;;;;;;;-144.05;69.83;57086.72;5096828;28;20024;-80
2024/01/16 09:14:47;;;;;;;11.30;4.43;;;;;;;-144.05;69.60;57082.47;5098012;28;20454;-81
2024/01/16 09:17:13;;;;;;;11.90;4.20;;;;;;;-144.05;69.69;57086.72;5096099;28;20121;-79
2024/01/16 09:19:40;;;;;;;11.23;3.47;;;;;;;-144.05;69.36;57114.34;5095910;28;20024;-78
2024/01/16 09:22:06;;;;;;;14.10;3.45;;;;;;;-144.05;69.41;57112.22;5097751;28;20071;-78
2024/01/16 09:24:33;;;;;;;6.80;2.78;;;;;;;-144.05;68.94;57120.72;5098910;28;20062;-78
2024/01/16 09:26:59;;;;;;;6.78;4.20;;;;;;;-144.05;68.96;57131.31;5096888;28;20032;-78
2024/01/16 09:29:25;;;;;;;13.00;4.90;;;;;;;-144.05;68.87;57090.97;5101222;28;20027;-80
2024/01/16 09:31:52;;;;;;;10.77;2.90;;;;;;;-144.05;68.19;57076.09;5102200;28;20165;-78
2024/01/16 09:34:18;;;;;;;7.20;2.80;;;;;;;-144.05;68.27;57082.47;5101753;28;20082;-77
2024/01/16 09:36:44;;;;;;;9.23;2.85;;;;;;;-144.05;68.13;57105.84;5105993;28;20028;-77
2024/01/16 09:39:16;;;;;;;15.35;3.40;;;;;;;-144.05;68.32;57095.22;5094975;28;20617;-79
2024/01/16 09:41:44;;;;;;;9.25;4.07;;;;;;;-144.05;67.48;57095.22;5096523;28;20032;-80
2024/01/16 09:44:11;;;;;;;12.63;2.92;;;;;;;-144.05;67.51;57127.09;5096812;28;20043;-78
2024/01/16 09:46:40;;;;;;;15.35;3.60;;;-1.60;99.90;;;-144.05;66.85;57093.09;5095524;28;20541;-80
2024/01/16 09:49:06;;;;;;;7.30;2.75;;;;;;;-144.05;66.67;57095.22;5101759;28;20165;-79
2024/01/16 09:51:33;;;;;;;10.05;3.10;;;;;;;-144.05;66.06;57090.97;5097821;28;20043;-80
2024/01/16 09:54:01;;;;;;;8.15;2.65;;;;;;;-144.05;65.81;57093.09;5095503;28;20024;-80
2024/01/16 09:56:30;;;;;;;13.15;3.28;;;;;;;-144.05;65.25;57097.34;5094546;28;20419;-82
2024/01/16 09:59:05;;;;;;;8.10;2.88;;;-1.70;99.90;;;-144.05;65.83;57073.97;5102087;28;20024;-80
2024/01/16 10:01:34;;;;;;;8.07;2.50;;;-0.80;99.90;;;-144.05;65.73;57088.84;5103300;28;20405;-79
2024/01/16 10:04:00;;;;;;;12.35;2.83;;;;;;;-144.05;65.28;57105.84;5105865;28;20039;-80
2024/01/16 10:06:31;;;;;;;12.25;2.40;;;;;;;-144.05;65.23;57124.97;5124075;28;20099;-78
2024/01/16 10:08:58;;;;;;;9.55;2.80;;;;;;;-144.05;64.57;57099.47;5109170;28;20134;-79
2024/01/16 10:11:24;;;;;;;9.45;2.25;;;;;;;-144.05;65.16;57103.72;5109907;28;20028;-80
2024/01/16 10:13:51;;;;;;;9.57;4.00;;;;;;;-144.05;65.32;57073.97;5099970;28;20119;-78
2024/01/16 10:16:17;;;;;;;8.90;2.75;;;;;;;-144.05;64.77;57090.97;5122431;28;20035;-78
2024/01/16 10:18:43;;;;;;;9.35;2.75;;;;;;;-144.05;64.97;57093.09;5120827;28;20036;-78
2024/01/16 10:21:22;;;;;;;14.75;3.42;;;-2.10;99.90;;;-144.05;64.65;57063.34;5096390;28;20028;-80
2024/01/16 10:23:50;;;;;;;8.20;2.72;;;;;;;-144.05;64.28;57099.47;5098434;28;20089;-81
2024/01/16 10:26:18;;;;;;;10.63;2.85;;;;;;;-144.05;63.99;57076.09;5095421;28;20093;-79
2024/01/16 10:28:44;;;;;;;10.75;3.10;;;;;;;-144.05;64.26;57042.13;5095521;28;20073;-80
2024/01/16 10:31:16;;;;;;;8.27;3.17;;;2.40;99.90;;;-144.05;63.55;57086.72;5094470;28;20060;-82
2024/01/16 10:33:42;;;;;;;9.60;2.58;;;;;;;-144.05;63.86;57088.84;5095151;28;20027;-79
2024/01/16 10:36:17;;;;;;;12.25;2.92;;;-1.50;99.90;;;-144.05;63.47;57097.34;5097109;28;20069;-80
2024/01/16 10:38:45;;;;;;;13.40;3.05;;;;;;;-144.05;63.37;57063.34;5105214;28;20046;-79
2024/01/16 10:41:18;;;;;;;8.40;2.50;;;1.90;99.90;;;-144.05;63.28;57097.34;5109703;28;20536;-78
2024/01/16 10:43:45;;;;;;;7.55;2.90;;;;;;;-144.05;63.30;57105.84;5103600;28;20548;-77
2024/01/16 10:46:16;;;;;;;12.63;2.67;;;;;;;-144.05;63.25;57093.09;5097431;28;20028;-78
2024/01/16 10:49:02;;;;;;;10.43;2.75;;;2.80;99.90;;;-144.05;62.95;57090.97;5096271;28;20039;-79
2024/01/16 10:51:30;;;;;;;8.30;2.58;;;;;;;-144.05;63.26;57090.97;5095369;28;20030;-78
2024/01/16 10:54:08;;;;;;;7.75;2.65;;;;;;;-144.05;62.97;57101.59;5097847;28;20039;-77
2024/01/16 10:56:35;;;;;;;10.18;2.92;;;;;;;-144.05;62.28;57056.97;5095758;28;20035;-75
2024/01/16 10:59:39;;;;;;;8.90;3.95;;;;;;;-144.05;63.01;57056.97;5096320;28;20020;-77